sensor_id;sensor_type;location;lat;lon;timestamp;pressure;altitude;pressure_sealevel;temperature;humidity
53300;BME280;39187;48.476;8.310;2023-07-08T00:00:49;91556.44;;;19.73;42.95
53300;BME280;39187;48.476;8.310;2023-07-08T00:03:15;91554.31;;;19.77;43.03
53300;BME280;39187;48.476;8.310;2023-07-08T00:05:41;91553.34;;;19.66;43.06
53300;BME280;39187;48.476;8.310;2023-07-08T00:08:17;91562.06;;;19.60;43.65
53300;BME280;39187;48.476;8.310;2023-07-08T00:10:43;91562.19;;;19.66;43.22
53300;BME280;39187;48.476;8.310;2023-07-08T00:13:09;91562.44;;;19.53;43.69
53300;BME280;39187;48.476;8.310;2023-07-08T00:15:36;91558.13;;;19.47;43.56
53300;BME280;39187;48.476;8.310;2023-07-08T00:18:10;91560.41;;;19.63;43.25
53300;BME280;39187;48.476;8.310;2023-07-08T00:23:05;91563.81;;;19.49;43.26
53300;BME280;39187;48.476;8.310;2023-07-08T00:25:32;91559.63;;;19.48;43.03
53300;BME280;39187;48.476;8.310;2023-07-08T00:27:58;91551.34;;;19.51;42.88
53300;BME280;39187;48.476;8.310;2023-07-08T00:30:26;91550.31;;;19.49;42.72
53300;BME280;39187;48.476;8.310;2023-07-08T00:32:52;91553.16;;;19.45;43.00
53300;BME280;39187;48.476;8.310;2023-07-08T00:35:36;91550.31;;;19.49;42.95
53300;BME280;39187;48.476;8.310;2023-07-08T00:43:38;91540.38;;;19.55;42.75
53300;BME280;39187;48.476;8.310;2023-07-08T00:49:17;91531.72;;;19.51;42.91
53300;BME280;39187;48.476;8.310;2023-07-08T00:51:44;91532.81;;;19.35;43.36
53300;BME280;39187;48.476;8.310;2023-07-08T00:54:14;91540.78;;;19.39;43.23
53300;BME280;39187;48.476;8.310;2023-07-08T00:56:50;91531.28;;;19.43;43.03
53300;BME280;39187;48.476;8.310;2023-07-08T00:59:23;91537.28;;;19.47;43.21
53300;BME280;39187;48.476;8.310;2023-07-08T01:01:50;91535.47;;;19.44;42.75
53300;BME280;39187;48.476;8.310;2023-07-08T01:04:22;91542.41;;;19.36;43.07
53300;BME280;39187;48.476;8.310;2023-07-08T01:06:53;91534.56;;;19.47;42.63
53300;BME280;39187;48.476;8.310;2023-07-08T01:09:35;91530.22;;;19.50;42.56
53300;BME280;39187;48.476;8.310;2023-07-08T01:12:07;91537.66;;;19.55;42.29
53300;BME280;39187;48.476;8.310;2023-07-08T01:14:36;91536.19;;;19.54;42.42
53300;BME280;39187;48.476;8.310;2023-07-08T01:17:04;91534.41;;;19.51;42.68
53300;BME280;39187;48.476;8.310;2023-07-08T01:19:30;91542.06;;;19.43;42.80
53300;BME280;39187;48.476;8.310;2023-07-08T01:22:03;91536.56;;;19.38;42.83
53300;BME280;39187;48.476;8.310;2023-07-08T01:24:30;91547.19;;;19.41;43.02
53300;BME280;39187;48.476;8.310;2023-07-08T01:26:57;91544.06;;;19.34;42.98
53300;BME280;39187;48.476;8.310;2023-07-08T01:29:23;91543.91;;;19.37;43.04
53300;BME280;39187;48.476;8.310;2023-07-08T01:31:49;91543.50;;;19.30;43.03
53300;BME280;39187;48.476;8.310;2023-07-08T01:34:16;91551.97;;;19.46;42.95
53300;BME280;39187;48.476;8.310;2023-07-08T01:36:48;91547.31;;;19.47;42.98
53300;BME280;39187;48.476;8.310;2023-07-08T01:39:18;91547.25;;;19.32;43.31
53300;BME280;39187;48.476;8.310;2023-07-08T01:41:45;91545.06;;;19.21;43.60
53300;BME280;39187;48.476;8.310;2023-07-08T01:46:48;91544.81;;;19.10;43.89
53300;BME280;39187;48.476;8.310;2023-07-08T01:49:15;91543.78;;;19.08;43.83
53300;BME280;39187;48.476;8.310;2023-07-08T01:51:40;91543.63;;;19.11;43.88
53300;BME280;39187;48.476;8.310;2023-07-08T01:54:06;91540.94;;;19.11;43.88
53300;BME280;39187;48.476;8.310;2023-07-08T01:56:31;91535.22;;;19.09;43.71
53300;BME280;39187;48.476;8.310;2023-07-08T01:58:57;91538.97;;;19.12;43.87
53300;BME280;39187;48.476;8.310;2023-07-08T02:01:22;91538.97;;;19.12;43.73
53300;BME280;39187;48.476;8.310;2023-07-08T02:03:48;91543.00;;;19.16;43.83
53300;BME280;39187;48.476;8.310;2023-07-08T02:06:14;91544.38;;;19.12;43.79
53300;BME280;39187;48.476;8.310;2023-07-08T02:08:39;91550.84;;;19.05;44.21
53300;BME280;39187;48.476;8.310;2023-07-08T02:11:05;91553.00;;;18.92;44.47
53300;BME280;39187;48.476;8.310;2023-07-08T02:13:30;91547.69;;;18.74;45.20
53300;BME280;39187;48.476;8.310;2023-07-08T02:15:56;91547.44;;;18.63;45.79
53300;BME280;39187;48.476;8.310;2023-07-08T02:18:21;91549.31;;;18.80;45.12
53300;BME280;39187;48.476;8.310;2023-07-08T02:20:50;91545.16;;;18.70;45.43
53300;BME280;39187;48.476;8.310;2023-07-08T02:23:16;91548.31;;;18.69;45.50
53300;BME280;39187;48.476;8.310;2023-07-08T02:25:41;91548.03;;;18.67;45.78
53300;BME280;39187;48.476;8.310;2023-07-08T02:28:07;91542.47;;;18.70;45.49
53300;BME280;39187;48.476;8.310;2023-07-08T02:30:32;91549.47;;;18.77;45.44
53300;BME280;39187;48.476;8.310;2023-07-08T02:32:58;91549.75;;;18.88;45.14
53300;BME280;39187;48.476;8.310;2023-07-08T02:35:25;91548.25;;;18.87;45.19
53300;BME280;39187;48.476;8.310;2023-07-08T02:37:52;91540.44;;;18.89;44.80
53300;BME280;39187;48.476;8.310;2023-07-08T02:40:18;91546.13;;;18.91;44.84
53300;BME280;39187;48.476;8.310;2023-07-08T02:42:44;91545.78;;;18.98;44.90
53300;BME280;39187;48.476;8.310;2023-07-08T02:45:10;91530.28;;;19.08;44.80
53300;BME280;39187;48.476;8.310;2023-07-08T02:47:36;91537.81;;;19.04;44.72
53300;BME280;39187;48.476;8.310;2023-07-08T02:50:01;91535.97;;;19.10;44.61
53300;BME280;39187;48.476;8.310;2023-07-08T02:52:27;91541.38;;;19.10;44.71
53300;BME280;39187;48.476;8.310;2023-07-08T02:54:52;91541.94;;;19.14;44.73
53300;BME280;39187;48.476;8.310;2023-07-08T02:57:18;91544.19;;;19.15;44.80
53300;BME280;39187;48.476;8.310;2023-07-08T02:59:43;91539.25;;;19.14;44.92
53300;BME280;39187;48.476;8.310;2023-07-08T03:02:09;91539.44;;;19.10;45.02
53300;BME280;39187;48.476;8.310;2023-07-08T03:04:34;91527.31;;;19.06;45.47
53300;BME280;39187;48.476;8.310;2023-07-08T03:07:06;91540.00;;;19.14;45.03
53300;BME280;39187;48.476;8.310;2023-07-08T03:09:39;91530.25;;;19.17;45.11
53300;BME280;39187;48.476;8.310;2023-07-08T03:12:09;91541.34;;;19.19;45.38
53300;BME280;39187;48.476;8.310;2023-07-08T03:14:36;91543.75;;;19.17;45.28
53300;BME280;39187;48.476;8.310;2023-07-08T03:17:02;91545.47;;;19.05;45.54
53300;BME280;39187;48.476;8.310;2023-07-08T03:19:27;91538.22;;;19.11;45.41
53300;BME280;39187;48.476;8.310;2023-07-08T03:21:53;91534.78;;;19.11;45.37
53300;BME280;39187;48.476;8.310;2023-07-08T03:24:18;91541.16;;;19.22;45.22
53300;BME280;39187;48.476;8.310;2023-07-08T03:26:45;91550.13;;;19.29;44.88
53300;BME280;39187;48.476;8.310;2023-07-08T03:29:18;91555.97;;;19.27;44.90
53300;BME280;39187;48.476;8.310;2023-07-08T03:31:44;91558.97;;;19.29;44.61
53300;BME280;39187;48.476;8.310;2023-07-08T03:34:12;91556.78;;;19.42;44.48
53300;BME280;39187;48.476;8.310;2023-07-08T03:36:48;91560.97;;;19.43;44.18
53300;BME280;39187;48.476;8.310;2023-07-08T03:39:16;91565.00;;;19.48;44.12
53300;BME280;39187;48.476;8.310;2023-07-08T03:41:41;91563.13;;;19.39;44.25
53300;BME280;39187;48.476;8.310;2023-07-08T03:44:07;91568.16;;;19.46;44.10
53300;BME280;39187;48.476;8.310;2023-07-08T03:46:32;91575.81;;;19.48;43.99
53300;BME280;39187;48.476;8.310;2023-07-08T03:48:58;91577.13;;;19.52;43.86
53300;BME280;39187;48.476;8.310;2023-07-08T03:51:26;91578.06;;;19.49;43.87
53300;BME280;39187;48.476;8.310;2023-07-08T03:53:53;91588.69;;;19.53;43.82
53300;BME280;39187;48.476;8.310;2023-07-08T03:56:18;91601.28;;;19.56;43.82
53300;BME280;39187;48.476;8.310;2023-07-08T03:58:44;91600.47;;;19.65;43.68
53300;BME280;39187;48.476;8.310;2023-07-08T04:01:20;91603.75;;;19.69;43.57
53300;BME280;39187;48.476;8.310;2023-07-08T04:03:46;91609.59;;;19.67;43.83
53300;BME280;39187;48.476;8.310;2023-07-08T04:06:13;91600.81;;;19.57;44.03
53300;BME280;39187;48.476;8.310;2023-07-08T04:08:39;91600.47;;;19.65;43.69
53300;BME280;39187;48.476;8.310;2023-07-08T04:11:04;91594.66;;;19.57;43.93
53300;BME280;39187;48.476;8.310;2023-07-08T04:13:31;91592.09;;;19.63;43.75
53300;BME280;39187;48.476;8.310;2023-07-08T04:15:59;91586.44;;;19.75;43.78
53300;BME280;39187;48.476;8.310;2023-07-08T04:18:26;91592.69;;;19.81;43.49
53300;BME280;39187;48.476;8.310;2023-07-08T04:20:52;91591.50;;;19.82;43.31
53300;BME280;39187;48.476;8.310;2023-07-08T04:23:22;91599.16;;;19.84;43.28
53300;BME280;39187;48.476;8.310;2023-07-08T04:25:49;91595.22;;;19.85;43.53
53300;BME280;39187;48.476;8.310;2023-07-08T04:28:15;91608.84;;;19.90;43.53
53300;BME280;39187;48.476;8.310;2023-07-08T04:30:41;91605.25;;;20.08;43.33
53300;BME280;39187;48.476;8.310;2023-07-08T04:33:13;91613.16;;;19.97;43.93
53300;BME280;39187;48.476;8.310;2023-07-08T04:35:40;91613.91;;;20.12;44.89
53300;BME280;39187;48.476;8.310;2023-07-08T04:38:07;91616.19;;;20.28;45.43
53300;BME280;39187;48.476;8.310;2023-07-08T04:40:39;91611.59;;;20.73;44.94
53300;BME280;39187;48.476;8.310;2023-07-08T04:43:08;91610.97;;;21.28;44.26
53300;BME280;39187;48.476;8.310;2023-07-08T04:45:37;91607.06;;;21.14;46.01
53300;BME280;39187;48.476;8.310;2023-07-08T04:48:03;91618.03;;;21.40;46.25
53300;BME280;39187;48.476;8.310;2023-07-08T04:50:45;91613.91;;;21.24;47.16
53300;BME280;39187;48.476;8.310;2023-07-08T04:53:12;91623.97;;;21.24;48.23
53300;BME280;39187;48.476;8.310;2023-07-08T04:55:44;91616.13;;;21.26;48.91
53300;BME280;39187;48.476;8.310;2023-07-08T04:58:11;91617.34;;;21.25;50.12
53300;BME280;39187;48.476;8.310;2023-07-08T05:00:37;91624.13;;;21.35;50.47
53300;BME280;39187;48.476;8.310;2023-07-08T05:03:02;91633.75;;;21.36;51.14
53300;BME280;39187;48.476;8.310;2023-07-08T05:05:28;91624.91;;;21.06;52.46
53300;BME280;39187;48.476;8.310;2023-07-08T05:07:54;91631.63;;;20.81;54.47
53300;BME280;39187;48.476;8.310;2023-07-08T05:10:20;91635.72;;;20.32;56.97
53300;BME280;39187;48.476;8.310;2023-07-08T05:12:46;91644.34;;;20.22;58.51
53300;BME280;39187;48.476;8.310;2023-07-08T05:15:12;91639.88;;;19.95;60.72
53300;BME280;39187;48.476;8.310;2023-07-08T05:17:39;91635.03;;;19.99;61.30
53300;BME280;39187;48.476;8.310;2023-07-08T05:20:07;91641.09;;;19.70;64.04
53300;BME280;39187;48.476;8.310;2023-07-08T05:22:33;91634.63;;;19.44;66.25
53300;BME280;39187;48.476;8.310;2023-07-08T05:25:00;91635.81;;;19.10;69.27
53300;BME280;39187;48.476;8.310;2023-07-08T05:27:26;91628.00;;;19.12;69.21
53300;BME280;39187;48.476;8.310;2023-07-08T05:29:52;91641.00;;;19.22;69.71
53300;BME280;39187;48.476;8.310;2023-07-08T05:32:18;91636.88;;;19.03;71.35
53300;BME280;39187;48.476;8.310;2023-07-08T05:34:44;91636.94;;;18.94;71.40
53300;BME280;39187;48.476;8.310;2023-07-08T05:37:11;91623.16;;;18.83;73.10
53300;BME280;39187;48.476;8.310;2023-07-08T05:39:37;91621.66;;;18.91;72.54
53300;BME280;39187;48.476;8.310;2023-07-08T05:42:02;91624.97;;;18.77;73.74
53300;BME280;39187;48.476;8.310;2023-07-08T05:44:28;91621.06;;;18.87;72.38
53300;BME280;39187;48.476;8.310;2023-07-08T05:46:54;91621.34;;;18.89;71.93
53300;BME280;39187;48.476;8.310;2023-07-08T05:49:19;91619.88;;;18.88;72.07
53300;BME280;39187;48.476;8.310;2023-07-08T05:51:46;91621.50;;;18.86;71.86
53300;BME280;39187;48.476;8.310;2023-07-08T05:54:13;91618.44;;;19.02;71.09
53300;BME280;39187;48.476;8.310;2023-07-08T05:56:40;91600.56;;;18.80;72.22
53300;BME280;39187;48.476;8.310;2023-07-08T05:59:05;91612.72;;;18.67;73.42
53300;BME280;39187;48.476;8.310;2023-07-08T06:01:32;91612.25;;;18.77;72.71
53300;BME280;39187;48.476;8.310;2023-07-08T06:03:58;91619.63;;;18.68;73.38
53300;BME280;39187;48.476;8.310;2023-07-08T06:06:26;91619.63;;;18.68;74.06
53300;BME280;39187;48.476;8.310;2023-07-08T06:08:52;91621.13;;;18.51;74.92
53300;BME280;39187;48.476;8.310;2023-07-08T06:11:18;91622.91;;;18.63;74.37
53300;BME280;39187;48.476;8.310;2023-07-08T06:13:45;91629.19;;;18.78;73.89
53300;BME280;39187;48.476;8.310;2023-07-08T06:16:11;91641.91;;;18.87;73.10
53300;BME280;39187;48.476;8.310;2023-07-08T06:18:36;91641.16;;;18.86;72.59
53300;BME280;39187;48.476;8.310;2023-07-08T06:21:09;91648.75;;;18.97;72.18
53300;BME280;39187;48.476;8.310;2023-07-08T06:23:55;91634.25;;;18.94;72.80
53300;BME280;39187;48.476;8.310;2023-07-08T06:26:44;91645.59;;;18.98;71.82
53300;BME280;39187;48.476;8.310;2023-07-08T06:29:19;91642.28;;;19.03;71.19
53300;BME280;39187;48.476;8.310;2023-07-08T06:31:45;91646.19;;;19.02;71.63
53300;BME280;39187;48.476;8.310;2023-07-08T06:34:11;91645.97;;;19.15;70.37
53300;BME280;39187;48.476;8.310;2023-07-08T06:36:37;91648.09;;;19.11;70.17
53300;BME280;39187;48.476;8.310;2023-07-08T06:39:03;91651.09;;;19.13;70.40
53300;BME280;39187;48.476;8.310;2023-07-08T06:41:33;91639.03;;;19.32;69.24
53300;BME280;39187;48.476;8.310;2023-07-08T06:43:58;91644.81;;;19.49;68.52
53300;BME280;39187;48.476;8.310;2023-07-08T06:46:24;91648.38;;;19.55;68.06
53300;BME280;39187;48.476;8.310;2023-07-08T06:48:50;91646.16;;;19.77;67.11
53300;BME280;39187;48.476;8.310;2023-07-08T06:51:16;91643.84;;;19.85;65.69
53300;BME280;39187;48.476;8.310;2023-07-08T06:53:41;91647.94;;;19.80;65.66
53300;BME280;39187;48.476;8.310;2023-07-08T06:56:08;91655.13;;;19.83;65.40
53300;BME280;39187;48.476;8.310;2023-07-08T06:58:33;91649.94;;;19.94;65.34
53300;BME280;39187;48.476;8.310;2023-07-08T07:00:59;91645.69;;;20.02;64.26
53300;BME280;39187;48.476;8.310;2023-07-08T07:03:26;91646.09;;;20.25;63.33
53300;BME280;39187;48.476;8.310;2023-07-08T07:05:52;91642.41;;;20.37;61.33
53300;BME280;39187;48.476;8.310;2023-07-08T07:08:18;91643.56;;;20.45;60.06
53300;BME280;39187;48.476;8.310;2023-07-08T07:10:43;91652.63;;;20.71;59.19
53300;BME280;39187;48.476;8.310;2023-07-08T07:13:10;91647.03;;;20.75;57.61
53300;BME280;39187;48.476;8.310;2023-07-08T07:15:36;91645.72;;;21.00;56.41
53300;BME280;39187;48.476;8.310;2023-07-08T07:18:02;91643.56;;;20.74;56.69
53300;BME280;39187;48.476;8.310;2023-07-08T07:20:28;91648.25;;;20.89;55.87
53300;BME280;39187;48.476;8.310;2023-07-08T07:22:55;91647.88;;;21.25;53.47
53300;BME280;39187;48.476;8.310;2023-07-08T07:25:21;91638.34;;;21.65;52.22
53300;BME280;39187;48.476;8.310;2023-07-08T07:27:47;91641.13;;;21.70;51.63
53300;BME280;39187;48.476;8.310;2023-07-08T07:30:13;91646.13;;;21.57;51.06
53300;BME280;39187;48.476;8.310;2023-07-08T07:32:41;91641.75;;;21.80;50.56
53300;BME280;39187;48.476;8.310;2023-07-08T07:35:08;91649.59;;;22.13;50.49
53300;BME280;39187;48.476;8.310;2023-07-08T07:37:39;91642.47;;;22.61;49.73
53300;BME280;39187;48.476;8.310;2023-07-08T07:40:10;91646.69;;;23.14;48.42
53300;BME280;39187;48.476;8.310;2023-07-08T07:42:39;91644.69;;;23.83;46.87
53300;BME280;39187;48.476;8.310;2023-07-08T07:45:05;91643.63;;;24.17;44.10
53300;BME280;39187;48.476;8.310;2023-07-08T07:47:31;91648.22;;;24.48;42.75
53300;BME280;39187;48.476;8.310;2023-07-08T07:49:57;91640.63;;;24.69;42.13
53300;BME280;39187;48.476;8.310;2023-07-08T07:52:24;91644.66;;;25.12;41.37
53300;BME280;39187;48.476;8.310;2023-07-08T07:54:54;91648.81;;;24.80;40.76
53300;BME280;39187;48.476;8.310;2023-07-08T07:57:22;91652.56;;;24.99;40.64
53300;BME280;39187;48.476;8.310;2023-07-08T07:59:48;91651.44;;;24.47;40.41
53300;BME280;39187;48.476;8.310;2023-07-08T08:02:18;91653.31;;;25.00;40.42
53300;BME280;39187;48.476;8.310;2023-07-08T08:04:44;91655.06;;;25.03;40.67
53300;BME280;39187;48.476;8.310;2023-07-08T08:07:10;91658.78;;;25.05;39.94
53300;BME280;39187;48.476;8.310;2023-07-08T08:09:37;91653.31;;;24.94;40.17
53300;BME280;39187;48.476;8.310;2023-07-08T08:12:04;91655.06;;;25.03;39.86
53300;BME280;39187;48.476;8.310;2023-07-08T08:14:30;91660.53;;;24.32;40.38
53300;BME280;39187;48.476;8.310;2023-07-08T08:16:55;91656.22;;;24.74;40.09
53300;BME280;39187;48.476;8.310;2023-07-08T08:19:21;91662.50;;;25.02;39.27
53300;BME280;39187;48.476;8.310;2023-07-08T08:21:48;91667.22;;;25.46;39.36
53300;BME280;39187;48.476;8.310;2023-07-08T08:24:14;91664.00;;;25.53;39.36
53300;BME280;39187;48.476;8.310;2023-07-08T08:26:39;91663.84;;;26.43;39.08
53300;BME280;39187;48.476;8.310;2023-07-08T08:29:05;91662.06;;;27.03;37.64
53300;BME280;39187;48.476;8.310;2023-07-08T08:31:31;91670.09;;;27.31;36.86
53300;BME280;39187;48.476;8.310;2023-07-08T08:33:57;91671.25;;;27.05;35.05
53300;BME280;39187;48.476;8.310;2023-07-08T08:36:23;91669.59;;;27.32;35.06
53300;BME280;39187;48.476;8.310;2023-07-08T08:38:49;91669.81;;;26.99;35.40
53300;BME280;39187;48.476;8.310;2023-07-08T08:41:33;91675.22;;;26.52;35.28
53300;BME280;39187;48.476;8.310;2023-07-08T08:44:01;91676.22;;;26.55;35.51
53300;BME280;39187;48.476;8.310;2023-07-08T08:51:48;91677.38;;;27.17;34.77
53300;BME280;39187;48.476;8.310;2023-07-08T08:54:15;91665.50;;;26.57;35.05
53300;BME280;39187;48.476;8.310;2023-07-08T08:59:31;91678.66;;;26.58;35.91
53300;BME280;39187;48.476;8.310;2023-07-08T09:02:09;91685.97;;;26.28;35.63
53300;BME280;39187;48.476;8.310;2023-07-08T09:04:46;91685.97;;;26.28;36.22
53300;BME280;39187;48.476;8.310;2023-07-08T09:07:18;91695.31;;;26.55;36.29
53300;BME280;39187;48.476;8.310;2023-07-08T09:10:15;91691.00;;;26.76;35.99
53300;BME280;39187;48.476;8.310;2023-07-08T09:12:46;91696.19;;;26.11;35.50
53300;BME280;39187;48.476;8.310;2023-07-08T09:15:15;91694.69;;;26.84;35.97
53300;BME280;39187;48.476;8.310;2023-07-08T09:17:41;91691.09;;;27.52;35.19
53300;BME280;39187;48.476;8.310;2023-07-08T09:20:23;91691.53;;;27.86;33.83
53300;BME280;39187;48.476;8.310;2023-07-08T09:23:32;91680.47;;;27.73;33.37
53300;BME280;39187;48.476;8.310;2023-07-08T09:26:07;91683.47;;;28.00;32.99
53300;BME280;39187;48.476;8.310;2023-07-08T09:28:41;91686.16;;;28.29;32.37
53300;BME280;39187;48.476;8.310;2023-07-08T09:31:20;91683.38;;;28.35;32.91
53300;BME280;39187;48.476;8.310;2023-07-08T09:33:47;91685.72;;;28.74;31.70
53300;BME280;39187;48.476;8.310;2023-07-08T09:36:18;91689.44;;;28.71;31.38
53300;BME280;39187;48.476;8.310;2023-07-08T09:38:48;91680.31;;;28.63;32.57
53300;BME280;39187;48.476;8.310;2023-07-08T09:41:14;91680.97;;;28.93;31.60
53300;BME280;39187;48.476;8.310;2023-07-08T09:43:42;91683.03;;;29.06;31.17
53300;BME280;39187;48.476;8.310;2023-07-08T09:46:12;91693.47;;;28.89;31.79
53300;BME280;39187;48.476;8.310;2023-07-08T09:48:38;91689.50;;;27.92;32.82
53300;BME280;39187;48.476;8.310;2023-07-08T09:51:06;91689.00;;;27.94;33.50
53300;BME280;39187;48.476;8.310;2023-07-08T09:53:33;91691.00;;;28.18;33.85
53300;BME280;39187;48.476;8.310;2023-07-08T09:56:03;91689.72;;;28.92;32.49
53300;BME280;39187;48.476;8.310;2023-07-08T09:58:32;91693.31;;;28.14;33.33
53300;BME280;39187;48.476;8.310;2023-07-08T10:01:02;91687.56;;;27.87;33.71
53300;BME280;39187;48.476;8.310;2023-07-08T10:03:33;91690.94;;;27.34;34.25
53300;BME280;39187;48.476;8.310;2023-07-08T10:06:14;91699.06;;;27.45;34.38
53300;BME280;39187;48.476;8.310;2023-07-08T10:08:43;91689.84;;;27.48;35.25
53300;BME280;39187;48.476;8.310;2023-07-08T10:11:41;91696.81;;;27.49;35.61
53300;BME280;39187;48.476;8.310;2023-07-08T10:14:33;91696.28;;;27.15;36.16
53300;BME280;39187;48.476;8.310;2023-07-08T10:17:01;91694.97;;;27.63;35.25
53300;BME280;39187;48.476;8.310;2023-07-08T10:19:28;91698.38;;;27.74;35.29
53300;BME280;39187;48.476;8.310;2023-07-08T10:28:09;91695.50;;;26.73;36.24
53300;BME280;39187;48.476;8.310;2023-07-08T10:30:31;91697.16;;;26.24;37.61
53300;BME280;39187;48.476;8.310;2023-07-08T10:33:14;91708.78;;;26.19;37.84
53300;BME280;39187;48.476;8.310;2023-07-08T10:44:09;91706.75;;;26.53;38.65
53300;BME280;39187;48.476;8.310;2023-07-08T10:52:40;91716.75;;;26.28;38.31
53300;BME280;39187;48.476;8.310;2023-07-08T10:55:46;91718.00;;;26.00;38.52
53300;BME280;39187;48.476;8.310;2023-07-08T10:58:25;91710.78;;;26.36;37.57
53300;BME280;39187;48.476;8.310;2023-07-08T11:01:00;91717.50;;;26.29;38.89
53300;BME280;39187;48.476;8.310;2023-07-08T11:09:25;91713.81;;;25.87;38.82
53300;BME280;39187;48.476;8.310;2023-07-08T11:12:04;91725.00;;;25.78;38.07
53300;BME280;39187;48.476;8.310;2023-07-08T11:14:49;91715.56;;;25.68;38.39
53300;BME280;39187;48.476;8.310;2023-07-08T11:17:40;91709.88;;;25.66;39.64
53300;BME280;39187;48.476;8.310;2023-07-08T11:22:58;91708.81;;;26.14;37.67
53300;BME280;39187;48.476;8.310;2023-07-08T11:25:27;91711.31;;;25.95;38.05
53300;BME280;39187;48.476;8.310;2023-07-08T11:27:56;91712.56;;;25.55;39.11
53300;BME280;39187;48.476;8.310;2023-07-08T11:30:24;91708.13;;;25.63;39.53
53300;BME280;39187;48.476;8.310;2023-07-08T11:33:00;91702.16;;;25.92;39.81
53300;BME280;39187;48.476;8.310;2023-07-08T11:35:52;91708.59;;;25.34;39.21
53300;BME280;39187;48.476;8.310;2023-07-08T11:38:21;91713.81;;;25.54;39.81
53300;BME280;39187;48.476;8.310;2023-07-08T11:41:13;91709.34;;;25.68;39.40
53300;BME280;39187;48.476;8.310;2023-07-08T11:43:51;91707.09;;;25.33;39.48
53300;BME280;39187;48.476;8.310;2023-07-08T11:46:20;91708.59;;;25.56;40.31
53300;BME280;39187;48.476;8.310;2023-07-08T11:48:50;91700.69;;;25.69;39.70
53300;BME280;39187;48.476;8.310;2023-07-08T11:51:22;91705.66;;;25.76;39.01
53300;BME280;39187;48.476;8.310;2023-07-08T11:53:57;91701.91;;;25.74;39.02
53300;BME280;39187;48.476;8.310;2023-07-08T11:56:27;91694.22;;;25.89;38.90
53300;BME280;39187;48.476;8.310;2023-07-08T11:59:12;91699.44;;;25.92;39.62
53300;BME280;39187;48.476;8.310;2023-07-08T12:01:47;91703.91;;;25.90;40.55
53300;BME280;39187;48.476;8.310;2023-07-08T12:04:24;91697.44;;;25.43;41.05
53300;BME280;39187;48.476;8.310;2023-07-08T12:07:10;91686.78;;;25.50;40.33
53300;BME280;39187;48.476;8.310;2023-07-08T12:09:45;91688.53;;;25.81;40.34
53300;BME280;39187;48.476;8.310;2023-07-08T12:12:35;91699.41;;;25.48;40.18
53300;BME280;39187;48.476;8.310;2023-07-08T12:17:39;91687.31;;;25.77;38.22
53300;BME280;39187;48.476;8.310;2023-07-08T12:22:50;91699.66;;;26.00;39.85
53300;BME280;39187;48.476;8.310;2023-07-08T12:25:20;91689.47;;;26.06;38.93
53300;BME280;39187;48.476;8.310;2023-07-08T12:27:47;91691.97;;;25.93;38.83
53300;BME280;39187;48.476;8.310;2023-07-08T12:30:15;91693.47;;;25.88;37.27
53300;BME280;39187;48.476;8.310;2023-07-08T12:32:43;91693.97;;;25.81;37.54
53300;BME280;39187;48.476;8.310;2023-07-08T12:35:27;91698.47;;;25.73;37.73
53300;BME280;39187;48.476;8.310;2023-07-08T12:37:59;91696.22;;;25.77;37.79
53300;BME280;39187;48.476;8.310;2023-07-08T12:40:27;91694.22;;;25.94;37.20
53300;BME280;39187;48.476;8.310;2023-07-08T12:42:55;91694.25;;;25.67;37.58
53300;BME280;39187;48.476;8.310;2023-07-08T12:45:23;91692.78;;;25.66;37.81
53300;BME280;39187;48.476;8.310;2023-07-08T12:47:50;91689.25;;;25.93;37.67
53300;BME280;39187;48.476;8.310;2023-07-08T12:50:16;91708.81;;;26.25;37.37
53300;BME280;39187;48.476;8.310;2023-07-08T12:52:46;91698.69;;;25.98;38.09
53300;BME280;39187;48.476;8.310;2023-07-08T12:55:13;91691.00;;;25.90;37.32
53300;BME280;39187;48.476;8.310;2023-07-08T12:57:45;91684.97;;;26.31;37.28
53300;BME280;39187;48.476;8.310;2023-07-08T13:00:16;91684.03;;;25.95;38.47
53300;BME280;39187;48.476;8.310;2023-07-08T13:02:45;91691.00;;;25.85;39.45
53300;BME280;39187;48.476;8.310;2023-07-08T13:05:13;91686.31;;;25.85;38.48
53300;BME280;39187;48.476;8.310;2023-07-08T13:07:42;91684.75;;;26.07;38.50
53300;BME280;39187;48.476;8.310;2023-07-08T13:10:20;91684.75;;;26.29;38.37
53300;BME280;39187;48.476;8.310;2023-07-08T13:12:51;91691.19;;;26.20;38.61
53300;BME280;39187;48.476;8.310;2023-07-08T13:15:23;91682.50;;;26.22;39.33
53300;BME280;39187;48.476;8.310;2023-07-08T13:17:51;91685.72;;;26.31;38.55
53300;BME280;39187;48.476;8.310;2023-07-08T13:20:17;91691.97;;;26.10;38.74
53300;BME280;39187;48.476;8.310;2023-07-08T13:22:49;91694.44;;;26.02;38.95
53300;BME280;39187;48.476;8.310;2023-07-08T13:25:17;91689.78;;;25.86;38.17
53300;BME280;39187;48.476;8.310;2023-07-08T13:27:59;91683.50;;;26.13;38.05
53300;BME280;39187;48.476;8.310;2023-07-08T13:30:27;91683.44;;;26.47;37.23
53300;BME280;39187;48.476;8.310;2023-07-08T13:32:55;91689.34;;;26.62;37.76
53300;BME280;39187;48.476;8.310;2023-07-08T13:35:28;91686.09;;;26.63;37.65
53300;BME280;39187;48.476;8.310;2023-07-08T13:38:00;91676.25;;;26.38;37.43
53300;BME280;39187;48.476;8.310;2023-07-08T13:40:27;91686.88;;;26.53;37.28
53300;BME280;39187;48.476;8.310;2023-07-08T13:42:54;91682.47;;;26.33;37.22
53300;BME280;39187;48.476;8.310;2023-07-08T13:45:30;91678.03;;;26.36;36.50
53300;BME280;39187;48.476;8.310;2023-07-08T13:50:58;91671.59;;;26.16;37.09
53300;BME280;39187;48.476;8.310;2023-07-08T13:53:50;91680.25;;;26.37;36.43
53300;BME280;39187;48.476;8.310;2023-07-08T13:56:27;91672.50;;;26.47;36.63
53300;BME280;39187;48.476;8.310;2023-07-08T13:59:04;91682.47;;;26.39;37.01
53300;BME280;39187;48.476;8.310;2023-07-08T14:01:33;91682.63;;;26.63;36.50
53300;BME280;39187;48.476;8.310;2023-07-08T14:03:59;91683.06;;;26.72;36.17
53300;BME280;39187;48.476;8.310;2023-07-08T14:06:35;91681.38;;;26.64;36.17
53300;BME280;39187;48.476;8.310;2023-07-08T14:09:11;91679.16;;;26.62;37.38
53300;BME280;39187;48.476;8.310;2023-07-08T14:11:37;91675.50;;;26.38;37.88